sensor_id;sensor_type;location;lat;lon;timestamp;pressure;altitude;pressure_sealevel;temperature;humidity
48968;BME280;46511;53.148;8.204;2023-06-26T00:01:38;101287.53;;;24.35;100.00
48968;BME280;46511;53.148;8.204;2023-06-26T00:04:11;101279.44;;;24.26;100.00
48968;BME280;46511;53.148;8.204;2023-06-26T00:06:45;101288.28;;;24.19;100.00
48968;BME280;46511;53.148;8.204;2023-06-26T00:09:16;101290.31;;;24.17;100.00
48968;BME280;46511;53.148;8.204;2023-06-26T00:11:47;101286.88;;;24.07;100.00
48968;BME280;46511;53.148;8.204;2023-06-26T00:14:19;101285.34;;;24.13;100.00
48968;BME280;46511;53.148;8.204;2023-06-26T00:16:51;101277.84;;;24.07;100.00
48968;BME280;46511;53.148;8.204;2023-06-26T00:19:23;101277.28;;;23.95;100.00
48968;BME280;46511;53.148;8.204;2023-06-26T00:21:54;101272.75;;;24.04;100.00
48968;BME280;46511;53.148;8.204;2023-06-26T00:24:25;101277.84;;;23.99;100.00
48968;BME280;46511;53.148;8.204;2023-06-26T00:26:56;101274.91;;;23.92;100.00
48968;BME280;46511;53.148;8.204;2023-06-26T00:29:28;101276.94;;;23.90;100.00
48968;BME280;46511;53.148;8.204;2023-06-26T00:32:00;101270.66;;;23.89;100.00
48968;BME280;46511;53.148;8.204;2023-06-26T00:34:31;101270.16;;;23.94;100.00
48968;BME280;46511;53.148;8.204;2023-06-26T00:37:02;101266.56;;;23.85;100.00
48968;BME280;46511;53.148;8.204;2023-06-26T00:39:33;101261.28;;;23.84;100.00
48968;BME280;46511;53.148;8.204;2023-06-26T00:42:05;101257.56;;;23.85;100.00
48968;BME280;46511;53.148;8.204;2023-06-26T00:44:36;101258.56;;;23.84;100.00
48968;BME280;46511;53.148;8.204;2023-06-26T00:47:08;101264.00;;;23.84;100.00
48968;BME280;46511;53.148;8.204;2023-06-26T00:49:39;101261.75;;;23.71;100.00
48968;BME280;46511;53.148;8.204;2023-06-26T00:52:11;101255.75;;;23.68;100.00
48968;BME280;46511;53.148;8.204;2023-06-26T00:54:42;101250.34;;;23.68;100.00
48968;BME280;46511;53.148;8.204;2023-06-26T00:57:13;101240.88;;;23.72;100.00
48968;BME280;46511;53.148;8.204;2023-06-26T00:59:44;101249.66;;;23.65;100.00
48968;BME280;46511;53.148;8.204;2023-06-26T01:02:16;101245.75;;;23.68;100.00
48968;BME280;46511;53.148;8.204;2023-06-26T01:04:47;101248.56;;;23.58;100.00
48968;BME280;46511;53.148;8.204;2023-06-26T01:07:18;101243.78;;;23.52;100.00
48968;BME280;46511;53.148;8.204;2023-06-26T01:09:51;101235.50;;;23.54;100.00
48968;BME280;46511;53.148;8.204;2023-06-26T01:12:22;101232.63;;;23.55;100.00
48968;BME280;46511;53.148;8.204;2023-06-26T01:14:53;101225.97;;;23.50;100.00
48968;BME280;46511;53.148;8.204;2023-06-26T01:17:25;101221.59;;;23.31;100.00
48968;BME280;46511;53.148;8.204;2023-06-26T01:20:03;101214.94;;;23.43;100.00
48968;BME280;46511;53.148;8.204;2023-06-26T01:25:37;101211.19;;;23.44;100.00
48968;BME280;46511;53.148;8.204;2023-06-26T01:28:12;101209.97;;;23.38;100.00
48968;BME280;46511;53.148;8.204;2023-06-26T01:30:44;101208.09;;;23.39;100.00
48968;BME280;46511;53.148;8.204;2023-06-26T01:33:11;101207.06;;;23.32;100.00
48968;BME280;46511;53.148;8.204;2023-06-26T01:35:43;101200.94;;;23.30;100.00
48968;BME280;46511;53.148;8.204;2023-06-26T01:38:18;101205.66;;;23.28;100.00
48968;BME280;46511;53.148;8.204;2023-06-26T01:40:51;101199.34;;;23.19;100.00
48968;BME280;46511;53.148;8.204;2023-06-26T01:46:21;101190.53;;;23.17;100.00
48968;BME280;46511;53.148;8.204;2023-06-26T01:51:32;101185.59;;;23.13;100.00
48968;BME280;46511;53.148;8.204;2023-06-26T01:54:07;101187.66;;;23.19;100.00
48968;BME280;46511;53.148;8.204;2023-06-26T01:56:40;101183.84;;;23.12;100.00
48968;BME280;46511;53.148;8.204;2023-06-26T01:59:14;101175.16;;;23.00;100.00
48968;BME280;46511;53.148;8.204;2023-06-26T02:01:45;101173.97;;;23.02;100.00
48968;BME280;46511;53.148;8.204;2023-06-26T02:04:17;101182.25;;;23.01;100.00
48968;BME280;46511;53.148;8.204;2023-06-26T02:06:48;101174.63;;;22.96;100.00
48968;BME280;46511;53.148;8.204;2023-06-26T02:09:19;101171.66;;;23.07;100.00
48968;BME280;46511;53.148;8.204;2023-06-26T02:11:51;101174.06;;;22.93;100.00
48968;BME280;46511;53.148;8.204;2023-06-26T02:14:22;101162.59;;;22.99;100.00
48968;BME280;46511;53.148;8.204;2023-06-26T02:16:53;101161.25;;;22.95;100.00
48968;BME280;46511;53.148;8.204;2023-06-26T02:19:24;101160.84;;;22.90;100.00
48968;BME280;46511;53.148;8.204;2023-06-26T02:21:56;101150.34;;;22.87;100.00
48968;BME280;46511;53.148;8.204;2023-06-26T02:24:27;101152.94;;;22.96;100.00
48968;BME280;46511;53.148;8.204;2023-06-26T02:27:01;101148.81;;;22.84;100.00
48968;BME280;46511;53.148;8.204;2023-06-26T02:29:32;101141.38;;;22.86;100.00
48968;BME280;46511;53.148;8.204;2023-06-26T02:32:03;101151.25;;;22.95;100.00
48968;BME280;46511;53.148;8.204;2023-06-26T02:34:35;101145.59;;;22.89;100.00
48968;BME280;46511;53.148;8.204;2023-06-26T02:37:06;101154.75;;;22.88;100.00
48968;BME280;46511;53.148;8.204;2023-06-26T02:39:38;101137.38;;;22.80;100.00
48968;BME280;46511;53.148;8.204;2023-06-26T02:42:09;101137.53;;;22.79;100.00
48968;BME280;46511;53.148;8.204;2023-06-26T02:44:40;101137.88;;;22.76;100.00
48968;BME280;46511;53.148;8.204;2023-06-26T02:47:12;101138.22;;;22.81;100.00
48968;BME280;46511;53.148;8.204;2023-06-26T02:49:43;101130.34;;;22.70;100.00
48968;BME280;46511;53.148;8.204;2023-06-26T02:52:14;101141.88;;;22.72;100.00
48968;BME280;46511;53.148;8.204;2023-06-26T02:54:45;101128.34;;;22.72;100.00
48968;BME280;46511;53.148;8.204;2023-06-26T02:57:16;101135.09;;;22.68;100.00
48968;BME280;46511;53.148;8.204;2023-06-26T02:59:48;101138.72;;;22.59;100.00
48968;BME280;46511;53.148;8.204;2023-06-26T03:02:19;101139.09;;;22.64;100.00
48968;BME280;46511;53.148;8.204;2023-06-26T03:04:50;101138.72;;;22.59;100.00
48968;BME280;46511;53.148;8.204;2023-06-26T03:07:22;101130.34;;;22.70;100.00
48968;BME280;46511;53.148;8.204;2023-06-26T03:09:53;101130.28;;;22.62;100.00
48968;BME280;46511;53.148;8.204;2023-06-26T03:12:25;101134.69;;;22.63;100.00
48968;BME280;46511;53.148;8.204;2023-06-26T03:14:56;101132.75;;;22.55;100.00
48968;BME280;46511;53.148;8.204;2023-06-26T03:17:27;101129.69;;;22.50;100.00
48968;BME280;46511;53.148;8.204;2023-06-26T03:19:58;101122.31;;;22.60;100.00
48968;BME280;46511;53.148;8.204;2023-06-26T03:22:29;101117.31;;;22.47;100.00
48968;BME280;46511;53.148;8.204;2023-06-26T03:25:01;101123.66;;;22.56;100.00
48968;BME280;46511;53.148;8.204;2023-06-26T03:27:33;101116.13;;;22.68;100.00
48968;BME280;46511;53.148;8.204;2023-06-26T03:30:04;101117.16;;;22.67;100.00
48968;BME280;46511;53.148;8.204;2023-06-26T03:32:36;101113.59;;;22.66;100.00
48968;BME280;46511;53.148;8.204;2023-06-26T03:35:07;101110.81;;;22.58;100.00
48968;BME280;46511;53.148;8.204;2023-06-26T03:37:38;101112.75;;;22.66;100.00
48968;BME280;46511;53.148;8.204;2023-06-26T03:40:11;101113.44;;;22.68;100.00
48968;BME280;46511;53.148;8.204;2023-06-26T03:42:42;101111.41;;;22.70;100.00
48968;BME280;46511;53.148;8.204;2023-06-26T03:45:13;101106.38;;;22.75;100.00
48968;BME280;46511;53.148;8.204;2023-06-26T03:47:45;101099.63;;;22.79;100.00
48968;BME280;46511;53.148;8.204;2023-06-26T03:50:19;101100.25;;;22.73;100.00
48968;BME280;46511;53.148;8.204;2023-06-26T03:52:50;101096.00;;;22.70;100.00
48968;BME280;46511;53.148;8.204;2023-06-26T03:55:22;101090.97;;;22.93;100.00
48968;BME280;46511;53.148;8.204;2023-06-26T03:57:54;101096.00;;;22.88;100.00
48968;BME280;46511;53.148;8.204;2023-06-26T04:00:25;101090.25;;;22.91;100.00
48968;BME280;46511;53.148;8.204;2023-06-26T04:02:57;101097.25;;;22.76;100.00
48968;BME280;46511;53.148;8.204;2023-06-26T04:05:28;101088.25;;;22.93;100.00
48968;BME280;46511;53.148;8.204;2023-06-26T04:07:59;101091.66;;;22.95;100.00
48968;BME280;46511;53.148;8.204;2023-06-26T04:10:30;101084.94;;;23.07;100.00
48968;BME280;46511;53.148;8.204;2023-06-26T04:13:02;101086.72;;;23.25;100.00
48968;BME280;46511;53.148;8.204;2023-06-26T04:15:33;101092.19;;;23.33;100.00
48968;BME280;46511;53.148;8.204;2023-06-26T04:17:59;101090.84;;;23.37;100.00
48968;BME280;46511;53.148;8.204;2023-06-26T04:20:30;101080.34;;;23.34;100.00
48968;BME280;46511;53.148;8.204;2023-06-26T04:23:02;101082.19;;;23.33;100.00
48968;BME280;46511;53.148;8.204;2023-06-26T04:25:33;101074.56;;;23.37;100.00
48968;BME280;46511;53.148;8.204;2023-06-26T04:28:04;101070.53;;;23.41;100.00
48968;BME280;46511;53.148;8.204;2023-06-26T04:30:35;101060.72;;;23.48;100.00
48968;BME280;46511;53.148;8.204;2023-06-26T04:33:06;101066.84;;;23.58;100.00
48968;BME280;46511;53.148;8.204;2023-06-26T04:35:33;101057.75;;;23.68;100.00
48968;BME280;46511;53.148;8.204;2023-06-26T04:38:07;101059.97;;;23.64;100.00
48968;BME280;46511;53.148;8.204;2023-06-26T04:40:40;101056.75;;;23.69;100.00
48968;BME280;46511;53.148;8.204;2023-06-26T04:43:11;101060.34;;;23.69;100.00
48968;BME280;46511;53.148;8.204;2023-06-26T04:45:43;101054.91;;;23.77;100.00
48968;BME280;46511;53.148;8.204;2023-06-26T04:48:14;101058.69;;;24.01;100.00
48968;BME280;46511;53.148;8.204;2023-06-26T04:50:45;101048.84;;;23.91;100.00
48968;BME280;46511;53.148;8.204;2023-06-26T04:53:22;101046.84;;;24.26;100.00
48968;BME280;46511;53.148;8.204;2023-06-26T04:55:54;101054.97;;;24.18;100.00
48968;BME280;46511;53.148;8.204;2023-06-26T04:58:25;101060.13;;;24.37;100.00
48968;BME280;46511;53.148;8.204;2023-06-26T05:00:56;101053.44;;;24.23;100.00
48968;BME280;46511;53.148;8.204;2023-06-26T05:03:29;101059.25;;;24.45;100.00
48968;BME280;46511;53.148;8.204;2023-06-26T05:06:00;101065.31;;;24.22;100.00
48968;BME280;46511;53.148;8.204;2023-06-26T05:08:32;101043.44;;;24.24;100.00
48968;BME280;46511;53.148;8.204;2023-06-26T05:11:03;101038.53;;;24.52;100.00
48968;BME280;46511;53.148;8.204;2023-06-26T05:13:34;101042.25;;;24.67;100.00
48968;BME280;46511;53.148;8.204;2023-06-26T05:16:05;101050.72;;;24.81;100.00
48968;BME280;46511;53.148;8.204;2023-06-26T05:18:39;101045.78;;;24.92;100.00
48968;BME280;46511;53.148;8.204;2023-06-26T05:21:10;101044.25;;;24.82;100.00
48968;BME280;46511;53.148;8.204;2023-06-26T05:23:41;101040.19;;;24.86;100.00
48968;BME280;46511;53.148;8.204;2023-06-26T05:26:15;101038.97;;;24.88;100.00
48968;BME280;46511;53.148;8.204;2023-06-26T05:28:46;101034.38;;;25.05;100.00
48968;BME280;46511;53.148;8.204;2023-06-26T05:31:19;101029.59;;;24.99;100.00
48968;BME280;46511;53.148;8.204;2023-06-26T05:33:50;101031.59;;;25.21;100.00
48968;BME280;46511;53.148;8.204;2023-06-26T05:36:25;101026.22;;;25.05;100.00
48968;BME280;46511;53.148;8.204;2023-06-26T05:38:57;101024.59;;;25.58;100.00
48968;BME280;46511;53.148;8.204;2023-06-26T05:41:28;101031.69;;;25.67;100.00
48968;BME280;46511;53.148;8.204;2023-06-26T05:43:59;101021.50;;;25.69;100.00
48968;BME280;46511;53.148;8.204;2023-06-26T05:46:31;101024.91;;;25.71;100.00
48968;BME280;46511;53.148;8.204;2023-06-26T05:49:02;101021.44;;;25.46;100.00
48968;BME280;46511;53.148;8.204;2023-06-26T05:51:33;101014.63;;;25.81;100.00
48968;BME280;46511;53.148;8.204;2023-06-26T05:54:05;101016.19;;;25.76;100.00
48968;BME280;46511;53.148;8.204;2023-06-26T05:56:36;101014.97;;;26.24;100.00
48968;BME280;46511;53.148;8.204;2023-06-26T05:59:03;101013.34;;;26.15;100.00
48968;BME280;46511;53.148;8.204;2023-06-26T06:01:35;101025.50;;;26.50;100.00
48968;BME280;46511;53.148;8.204;2023-06-26T06:04:06;101031.13;;;27.01;100.00
48968;BME280;46511;53.148;8.204;2023-06-26T06:06:38;101043.31;;;27.85;100.00
48968;BME280;46511;53.148;8.204;2023-06-26T06:09:09;101033.72;;;27.89;100.00
48968;BME280;46511;53.148;8.204;2023-06-26T06:11:40;101034.03;;;27.80;100.00
48968;BME280;46511;53.148;8.204;2023-06-26T06:14:12;101027.59;;;29.14;100.00
48968;BME280;46511;53.148;8.204;2023-06-26T06:16:38;101024.66;;;28.53;100.00
48968;BME280;46511;53.148;8.204;2023-06-26T06:19:09;101020.03;;;29.16;99.42
48968;BME280;46511;53.148;8.204;2023-06-26T06:21:43;101018.03;;;28.90;100.00
48968;BME280;46511;53.148;8.204;2023-06-26T06:24:10;101020.06;;;28.32;100.00
48968;BME280;46511;53.148;8.204;2023-06-26T06:26:41;101030.66;;;28.21;100.00
48968;BME280;46511;53.148;8.204;2023-06-26T06:29:12;101028.03;;;28.55;100.00
48968;BME280;46511;53.148;8.204;2023-06-26T06:31:43;101022.81;;;28.60;100.00
48968;BME280;46511;53.148;8.204;2023-06-26T06:34:15;101028.53;;;28.65;100.00
48968;BME280;46511;53.148;8.204;2023-06-26T06:36:46;101028.00;;;30.33;90.09
48968;BME280;46511;53.148;8.204;2023-06-26T06:39:17;101033.88;;;30.70;85.25
48968;BME280;46511;53.148;8.204;2023-06-26T06:41:49;101031.97;;;30.77;85.92
48968;BME280;46511;53.148;8.204;2023-06-26T06:44:20;101041.69;;;30.13;94.10
48968;BME280;46511;53.148;8.204;2023-06-26T06:46:52;101040.50;;;29.68;95.95
48968;BME280;46511;53.148;8.204;2023-06-26T06:49:23;101046.81;;;29.69;94.49
48968;BME280;46511;53.148;8.204;2023-06-26T06:51:50;101054.28;;;28.78;100.00
48968;BME280;46511;53.148;8.204;2023-06-26T06:54:21;101060.50;;;29.27;96.39
48968;BME280;46511;53.148;8.204;2023-06-26T06:56:52;101062.47;;;29.06;99.57
48968;BME280;46511;53.148;8.204;2023-06-26T06:59:23;101070.09;;;29.10;100.00
48968;BME280;46511;53.148;8.204;2023-06-26T07:01:55;101086.97;;;28.22;100.00
48968;BME280;46511;53.148;8.204;2023-06-26T07:04:26;101088.66;;;27.50;100.00
48968;BME280;46511;53.148;8.204;2023-06-26T07:06:58;101089.06;;;27.98;100.00
48968;BME280;46511;53.148;8.204;2023-06-26T07:09:29;101089.88;;;27.77;100.00
48968;BME280;46511;53.148;8.204;2023-06-26T07:12:00;101089.31;;;28.03;100.00
48968;BME280;46511;53.148;8.204;2023-06-26T07:14:32;101083.09;;;28.52;100.00
48968;BME280;46511;53.148;8.204;2023-06-26T07:17:03;101095.97;;;28.58;100.00
48968;BME280;46511;53.148;8.204;2023-06-26T07:19:34;101102.88;;;28.33;100.00
48968;BME280;46511;53.148;8.204;2023-06-26T07:22:06;101110.44;;;28.31;100.00
48968;BME280;46511;53.148;8.204;2023-06-26T07:24:37;101102.34;;;26.83;100.00
48968;BME280;46511;53.148;8.204;2023-06-26T07:27:08;101135.09;;;26.37;100.00
48968;BME280;46511;53.148;8.204;2023-06-26T07:29:40;101155.34;;;25.64;100.00
48968;BME280;46511;53.148;8.204;2023-06-26T07:32:11;101158.44;;;25.53;100.00
48968;BME280;46511;53.148;8.204;2023-06-26T07:34:37;101173.00;;;25.05;100.00
48968;BME280;46511;53.148;8.204;2023-06-26T07:37:04;101161.13;;;25.06;100.00
48968;BME280;46511;53.148;8.204;2023-06-26T07:39:35;101174.34;;;24.68;100.00
48968;BME280;46511;53.148;8.204;2023-06-26T07:42:06;101210.13;;;23.89;100.00
48968;BME280;46511;53.148;8.204;2023-06-26T07:44:37;101275.06;;;23.21;100.00
48968;BME280;46511;53.148;8.204;2023-06-26T07:47:09;101302.25;;;22.75;100.00
48968;BME280;46511;53.148;8.204;2023-06-26T07:49:35;101310.69;;;21.03;100.00
48968;BME280;46511;53.148;8.204;2023-06-26T07:52:07;101327.66;;;20.45;100.00
48968;BME280;46511;53.148;8.204;2023-06-26T07:54:41;101339.69;;;20.81;100.00
48968;BME280;46511;53.148;8.204;2023-06-26T07:57:12;101342.53;;;20.90;100.00
48968;BME280;46511;53.148;8.204;2023-06-26T07:59:43;101347.41;;;20.96;100.00
48968;BME280;46511;53.148;8.204;2023-06-26T08:02:15;101347.84;;;21.39;100.00
48968;BME280;46511;53.148;8.204;2023-06-26T08:04:46;101345.84;;;21.61;100.00
48968;BME280;46511;53.148;8.204;2023-06-26T08:07:18;101345.91;;;21.88;100.00
48968;BME280;46511;53.148;8.204;2023-06-26T08:09:49;101336.28;;;22.23;100.00
48968;BME280;46511;53.148;8.204;2023-06-26T08:12:21;101330.56;;;22.53;100.00
48968;BME280;46511;53.148;8.204;2023-06-26T08:14:47;101321.84;;;23.41;100.00
48968;BME280;46511;53.148;8.204;2023-06-26T08:17:18;101304.25;;;23.97;100.00
48968;BME280;46511;53.148;8.204;2023-06-26T08:19:49;101296.88;;;24.49;100.00
48968;BME280;46511;53.148;8.204;2023-06-26T08:22:20;101273.53;;;26.65;100.00
48968;BME280;46511;53.148;8.204;2023-06-26T08:24:52;101273.41;;;25.15;100.00
48968;BME280;46511;53.148;8.204;2023-06-26T08:27:23;101289.97;;;24.20;100.00
48968;BME280;46511;53.148;8.204;2023-06-26T08:29:54;101298.63;;;24.58;100.00
48968;BME280;46511;53.148;8.204;2023-06-26T08:32:21;101296.47;;;25.84;100.00
48968;BME280;46511;53.148;8.204;2023-06-26T08:34:52;101292.94;;;27.16;100.00
48968;BME280;46511;53.148;8.204;2023-06-26T08:37:18;101301.84;;;27.70;100.00
48968;BME280;46511;53.148;8.204;2023-06-26T08:39:49;101293.69;;;26.79;100.00
48968;BME280;46511;53.148;8.204;2023-06-26T08:42:20;101275.59;;;29.22;100.00
48968;BME280;46511;53.148;8.204;2023-06-26T08:44:52;101263.41;;;29.80;100.00
48968;BME280;46511;53.148;8.204;2023-06-26T08:47:23;101275.22;;;29.53;100.00
48968;BME280;46511;53.148;8.204;2023-06-26T08:50:08;101271.22;;;30.18;100.00
48968;BME280;46511;53.148;8.204;2023-06-26T08:52:37;101268.53;;;30.99;100.00
48968;BME280;46511;53.148;8.204;2023-06-26T08:55:12;101265.38;;;32.39;98.70
48968;BME280;46511;53.148;8.204;2023-06-26T08:57:43;101256.41;;;33.70;90.08
48968;BME280;46511;53.148;8.204;2023-06-26T09:00:14;101258.34;;;31.92;91.21
48968;BME280;46511;53.148;8.204;2023-06-26T09:02:46;101261.75;;;31.94;96.58
48968;BME280;46511;53.148;8.204;2023-06-26T09:05:20;101261.66;;;33.53;94.58
48968;BME280;46511;53.148;8.204;2023-06-26T09:07:52;101261.06;;;34.91;80.67
48968;BME280;46511;53.148;8.204;2023-06-26T09:10:26;101262.13;;;36.31;64.07
48968;BME280;46511;53.148;8.204;2023-06-26T09:12:55;101269.31;;;36.03;60.69
48968;BME280;46511;53.148;8.204;2023-06-26T09:15:36;101263.50;;;34.21;67.85
48968;BME280;46511;53.148;8.204;2023-06-26T09:18:08;101280.44;;;32.30;79.75
48968;BME280;46511;53.148;8.204;2023-06-26T09:20:39;101298.09;;;31.90;77.12
48968;BME280;46511;53.148;8.204;2023-06-26T09:23:11;101292.34;;;34.19;56.91
48968;BME280;46511;53.148;8.204;2023-06-26T09:25:42;101294.06;;;35.75;50.21
48968;BME280;46511;53.148;8.204;2023-06-26T09:28:14;101301.13;;;33.47;51.29
48968;BME280;46511;53.148;8.204;2023-06-26T09:30:46;101299.47;;;34.26;49.42
48968;BME280;46511;53.148;8.204;2023-06-26T09:33:20;101312.16;;;33.91;53.00
48968;BME280;46511;53.148;8.204;2023-06-26T09:35:51;101302.41;;;35.33;47.21
48968;BME280;46511;53.148;8.204;2023-06-26T09:38:23;101310.28;;;36.07;49.62
48968;BME280;46511;53.148;8.204;2023-06-26T09:40:54;101304.44;;;34.54;46.97
48968;BME280;46511;53.148;8.204;2023-06-26T09:43:25;101323.75;;;36.15;44.36
48968;BME280;46511;53.148;8.204;2023-06-26T09:45:58;101322.63;;;37.08;40.07
48968;BME280;46511;53.148;8.204;2023-06-26T09:48:29;101321.81;;;37.41;42.62
48968;BME280;46511;53.148;8.204;2023-06-26T09:51:01;101331.78;;;34.19;52.95
48968;BME280;46511;53.148;8.204;2023-06-26T09:53:34;101340.47;;;34.23;47.75
48968;BME280;46511;53.148;8.204;2023-06-26T09:56:06;101343.94;;;32.74;51.20
48968;BME280;46511;53.148;8.204;2023-06-26T09:58:38;101344.56;;;35.94;42.12
48968;BME280;46511;53.148;8.204;2023-06-26T10:01:10;101345.13;;;36.31;40.69
48968;BME280;46511;53.148;8.204;2023-06-26T10:03:41;101341.09;;;37.69;37.69
48968;BME280;46511;53.148;8.204;2023-06-26T10:06:12;101350.16;;;38.37;35.98
48968;BME280;46511;53.148;8.204;2023-06-26T10:08:44;101350.63;;;36.54;37.72
48968;BME280;46511;53.148;8.204;2023-06-26T10:11:16;101340.44;;;36.43;38.56
48968;BME280;46511;53.148;8.204;2023-06-26T10:13:50;101347.53;;;38.47;32.68
48968;BME280;46511;53.148;8.204;2023-06-26T10:16:23;101343.88;;;39.50;31.84
48968;BME280;46511;53.148;8.204;2023-06-26T10:18:56;101344.50;;;39.94;29.14
48968;BME280;46511;53.148;8.204;2023-06-26T10:21:29;101356.66;;;37.37;32.55
48968;BME280;46511;53.148;8.204;2023-06-26T10:24:02;101362.13;;;36.11;33.72
48968;BME280;46511;53.148;8.204;2023-06-26T10:26:35;101355.09;;;36.84;34.34
48968;BME280;46511;53.148;8.204;2023-06-26T10:29:08;101354.34;;;39.37;31.65
48968;BME280;46511;53.148;8.204;2023-06-26T10:31:40;101352.25;;;41.27;29.58
48968;BME280;46511;53.148;8.204;2023-06-26T10:34:13;101369.75;;;39.82;28.72
48968;BME280;46511;53.148;8.204;2023-06-26T10:36:45;101367.53;;;36.70;32.98
48968;BME280;46511;53.148;8.204;2023-06-26T10:39:18;101368.72;;;34.91;35.50
48968;BME280;46511;53.148;8.204;2023-06-26T10:41:51;101379.53;;;34.38;37.16
48968;BME280;46511;53.148;8.204;2023-06-26T10:44:25;101386.53;;;33.09;40.86
48968;BME280;46511;53.148;8.204;2023-06-26T10:46:56;101387.06;;;32.15;46.24
48968;BME280;46511;53.148;8.204;2023-06-26T10:49:29;101404.84;;;33.60;45.28
48968;BME280;46511;53.148;8.204;2023-06-26T10:52:01;101399.53;;;33.65;41.84
48968;BME280;46511;53.148;8.204;2023-06-26T10:54:30;101392.81;;;33.16;42.74
48968;BME280;46511;53.148;8.204;2023-06-26T10:57:02;101398.28;;;36.33;38.91
48968;BME280;46511;53.148;8.204;2023-06-26T10:59:39;101394.88;;;37.35;34.05
48968;BME280;46511;53.148;8.204;2023-06-26T11:02:11;101389.41;;;37.11;35.57
48968;BME280;46511;53.148;8.204;2023-06-26T11:04:44;101400.44;;;37.23;35.65
48968;BME280;46511;53.148;8.204;2023-06-26T11:07:22;101392.16;;;39.38;32.11
48968;BME280;46511;53.148;8.204;2023-06-26T11:12:35;101407.25;;;41.78;28.02
48968;BME280;46511;53.148;8.204;2023-06-26T11:15:08;101400.91;;;38.33;31.17
48968;BME280;46511;53.148;8.204;2023-06-26T11:17:39;101408.00;;;38.23;30.79
48968;BME280;46511;53.148;8.204;2023-06-26T11:20:12;101399.63;;;38.62;31.89
48968;BME280;46511;53.148;8.204;2023-06-26T11:22:44;101412.53;;;37.62;31.99
48968;BME280;46511;53.148;8.204;2023-06-26T11:25:15;101407.91;;;36.19;35.88
48968;BME280;46511;53.148;8.204;2023-06-26T11:27:47;101400.25;;;32.71;43.39
48968;BME280;46511;53.148;8.204;2023-06-26T11:30:25;101427.28;;;30.61;53.74
48968;BME280;46511;53.148;8.204;2023-06-26T11:33:03;101430.78;;;28.92;67.24
48968;BME280;46511;53.148;8.204;2023-06-26T11:35:30;101435.16;;;29.65;67.38
48968;BME280;46511;53.148;8.204;2023-06-26T11:38:02;101435.69;;;34.25;47.59
48968;BME280;46511;53.148;8.204;2023-06-26T11:40:37;101429.31;;;35.88;40.40
48968;BME280;46511;53.148;8.204;2023-06-26T11:43:09;101423.41;;;33.71;38.96
48968;BME280;46511;53.148;8.204;2023-06-26T11:45:40;101423.06;;;37.32;35.63
48968;BME280;46511;53.148;8.204;2023-06-26T11:48:11;101413.06;;;37.76;33.58
48968;BME280;46511;53.148;8.204;2023-06-26T11:50:43;101425.78;;;36.86;35.45
48968;BME280;46511;53.148;8.204;2023-06-26T11:53:14;101426.38;;;34.63;37.37
48968;BME280;46511;53.148;8.204;2023-06-26T11:55:45;101435.34;;;32.89;43.59
48968;BME280;46511;53.148;8.204;2023-06-26T11:58:17;101446.88;;;33.80;46.55
48968;BME280;46511;53.148;8.204;2023-06-26T12:00:48;101445.31;;;34.41;43.50
48968;BME280;46511;53.148;8.204;2023-06-26T12:03:19;101460.66;;;33.80;43.24
48968;BME280;46511;53.148;8.204;2023-06-26T12:05:51;101459.25;;;33.40;46.11
48968;BME280;46511;53.148;8.204;2023-06-26T12:08:23;101459.66;;;30.16;57.06
48968;BME280;46511;53.148;8.204;2023-06-26T12:10:54;101463.78;;;29.63;63.49
48968;BME280;46511;53.148;8.204;2023-06-26T12:13:26;101463.63;;;30.41;58.94
48968;BME280;46511;53.148;8.204;2023-06-26T12:15:58;101454.34;;;33.42;43.57
48968;BME280;46511;53.148;8.204;2023-06-26T12:18:35;101462.28;;;35.00;36.97
48968;BME280;46511;53.148;8.204;2023-06-26T12:21:07;101459.03;;;35.63;33.72
48968;BME280;46511;53.148;8.204;2023-06-26T12:23:38;101454.66;;;34.40;36.23
48968;BME280;46511;53.148;8.204;2023-06-26T12:26:17;101451.16;;;33.45;41.39
48968;BME280;46511;53.148;8.204;2023-06-26T12:28:48;101467.41;;;32.37;45.00
48968;BME280;46511;53.148;8.204;2023-06-26T12:31:20;101460.47;;;30.73;50.56
48968;BME280;46511;53.148;8.204;2023-06-26T12:33:52;101461.03;;;30.05;53.51
48968;BME280;46511;53.148;8.204;2023-06-26T12:36:23;101458.72;;;29.45;52.31
48968;BME280;46511;53.148;8.204;2023-06-26T12:38:55;101453.66;;;28.61;59.61
48968;BME280;46511;53.148;8.204;2023-06-26T12:41:26;101466.19;;;29.94;64.34
48968;BME280;46511;53.148;8.204;2023-06-26T12:43:57;101458.25;;;30.55;55.68
48968;BME280;46511;53.148;8.204;2023-06-26T12:46:35;101461.78;;;29.71;66.42
48968;BME280;46511;53.148;8.204;2023-06-26T12:49:06;101451.34;;;33.05;49.17
48968;BME280;46511;53.148;8.204;2023-06-26T12:51:37;101453.06;;;34.26;42.52
48968;BME280;46511;53.148;8.204;2023-06-26T12:54:09;101461.50;;;35.41;39.75
48968;BME280;46511;53.148;8.204;2023-06-26T12:56:40;101454.31;;;36.64;33.12
48968;BME280;46511;53.148;8.204;2023-06-26T12:59:12;101476.41;;;32.90;36.98
48968;BME280;46511;53.148;8.204;2023-06-26T13:01:43;101466.19;;;30.78;41.46
48968;BME280;46511;53.148;8.204;2023-06-26T13:04:14;101472.91;;;30.40;44.75
48968;BME280;46511;53.148;8.204;2023-06-26T13:06:45;101463.06;;;30.18;45.71
48968;BME280;46511;53.148;8.204;2023-06-26T13:09:12;101469.59;;;29.96;48.95
48968;BME280;46511;53.148;8.204;2023-06-26T13:11:44;101480.16;;;29.99;54.38
48968;BME280;46511;53.148;8.204;2023-06-26T13:14:15;101479.97;;;29.43;54.53
48968;BME280;46511;53.148;8.204;2023-06-26T13:16:47;101481.78;;;28.55;60.08